sensor_id;sensor_type;location;lat;lon;timestamp;pressure;altitude;pressure_sealevel;temperature;humidity
23635;BME280;11994;51.038;16.974;2023-04-28T00:00:08;100613.35;;;6.54;66.52
23635;BME280;11994;51.038;16.974;2023-04-28T00:02:33;100611.27;;;6.57;66.32
23635;BME280;11994;51.038;16.974;2023-04-28T00:04:59;100613.52;;;6.58;66.42
23635;BME280;11994;51.038;16.974;2023-04-28T00:07:24;100608.14;;;6.57;66.41
23635;BME280;11994;51.038;16.974;2023-04-28T00:09:50;100602.07;;;6.55;66.37
23635;BME280;11994;51.038;16.974;2023-04-28T00:12:15;100599.98;;;6.55;66.53
23635;BME280;11994;51.038;16.974;2023-04-28T00:14:41;100601.19;;;6.57;66.85
23635;BME280;11994;51.038;16.974;2023-04-28T00:17:06;100604.83;;;6.58;66.73
23635;BME280;11994;51.038;16.974;2023-04-28T00:19:33;100603.10;;;6.61;66.94
23635;BME280;11994;51.038;16.974;2023-04-28T00:21:58;100603.96;;;6.63;67.25
23635;BME280;11994;51.038;16.974;2023-04-28T00:24:23;100597.54;;;6.60;66.93
23635;BME280;11994;51.038;16.974;2023-04-28T00:26:49;100595.11;;;6.52;66.81
23635;BME280;11994;51.038;16.974;2023-04-28T00:29:14;100591.98;;;6.47;66.93
23635;BME280;11994;51.038;16.974;2023-04-28T00:31:39;100589.91;;;6.45;67.29
23635;BME280;11994;51.038;16.974;2023-04-28T00:34:05;100594.08;;;6.44;67.43
23635;BME280;11994;51.038;16.974;2023-04-28T00:36:30;100592.34;;;6.44;67.58
23635;BME280;11994;51.038;16.974;2023-04-28T00:38:57;100595.63;;;6.45;67.46
23635;BME280;11994;51.038;16.974;2023-04-28T00:41:22;100592.33;;;6.47;67.90
23635;BME280;11994;51.038;16.974;2023-04-28T00:43:48;100593.38;;;6.49;67.81
23635;BME280;11994;51.038;16.974;2023-04-28T00:46:18;100593.38;;;6.49;67.67
23635;BME280;11994;51.038;16.974;2023-04-28T00:48:45;100591.46;;;6.47;67.58
23635;BME280;11994;51.038;16.974;2023-04-28T00:51:10;100587.98;;;6.47;67.76
23635;BME280;11994;51.038;16.974;2023-04-28T00:53:35;100585.55;;;6.46;67.81
23635;BME280;11994;51.038;16.974;2023-04-28T00:56:01;100583.82;;;6.46;67.90
23635;BME280;11994;51.038;16.974;2023-04-28T00:58:27;100578.25;;;6.48;67.94
23635;BME280;11994;51.038;16.974;2023-04-28T01:00:59;100579.29;;;6.52;68.26
23635;BME280;11994;51.038;16.974;2023-04-28T01:03:25;100576.34;;;6.56;68.05
23635;BME280;11994;51.038;16.974;2023-04-28T01:05:50;100571.81;;;6.58;67.84
23635;BME280;11994;51.038;16.974;2023-04-28T01:08:16;100572.52;;;6.58;67.66
23635;BME280;11994;51.038;16.974;2023-04-28T01:10:44;100571.82;;;6.58;67.72
23635;BME280;11994;51.038;16.974;2023-04-28T01:13:10;100569.91;;;6.58;67.79
23635;BME280;11994;51.038;16.974;2023-04-28T01:15:36;100569.91;;;6.60;67.95
23635;BME280;11994;51.038;16.974;2023-04-28T01:18:01;100567.66;;;6.60;67.91
23635;BME280;11994;51.038;16.974;2023-04-28T01:20:27;100569.39;;;6.60;67.83
23635;BME280;11994;51.038;16.974;2023-04-28T01:22:52;100562.79;;;6.58;67.75
23635;BME280;11994;51.038;16.974;2023-04-28T01:25:17;100562.10;;;6.58;68.09
23635;BME280;11994;51.038;16.974;2023-04-28T01:27:42;100561.39;;;6.59;68.14
23635;BME280;11994;51.038;16.974;2023-04-28T01:30:08;100563.48;;;6.58;68.17
23635;BME280;11994;51.038;16.974;2023-04-28T01:32:33;100556.35;;;6.57;68.13
23635;BME280;11994;51.038;16.974;2023-04-28T01:34:58;100555.66;;;6.55;68.13
23635;BME280;11994;51.038;16.974;2023-04-28T01:37:24;100555.33;;;6.53;68.08
23635;BME280;11994;51.038;16.974;2023-04-28T01:39:49;100552.02;;;6.50;68.14
23635;BME280;11994;51.038;16.974;2023-04-28T01:42:14;100549.60;;;6.48;68.13
23635;BME280;11994;51.038;16.974;2023-04-28T01:44:39;100549.77;;;6.46;68.13
23635;BME280;11994;51.038;16.974;2023-04-28T01:47:05;100551.67;;;6.46;68.24
23635;BME280;11994;51.038;16.974;2023-04-28T01:49:30;100549.95;;;6.48;68.30
23635;BME280;11994;51.038;16.974;2023-04-28T01:51:56;100549.25;;;6.51;68.37
23635;BME280;11994;51.038;16.974;2023-04-28T01:54:21;100549.58;;;6.55;68.53
23635;BME280;11994;51.038;16.974;2023-04-28T01:56:46;100548.70;;;6.59;68.57
23635;BME280;11994;51.038;16.974;2023-04-28T01:59:12;100548.18;;;6.62;68.64
23635;BME280;11994;51.038;16.974;2023-04-28T02:01:37;100544.52;;;6.62;68.47
23635;BME280;11994;51.038;16.974;2023-04-28T02:04:02;100542.11;;;6.59;68.51
23635;BME280;11994;51.038;16.974;2023-04-28T02:06:27;100546.45;;;6.57;68.48
23635;BME280;11994;51.038;16.974;2023-04-28T02:08:53;100547.16;;;6.55;68.58
23635;BME280;11994;51.038;16.974;2023-04-28T02:11:18;100545.42;;;6.52;68.58
23635;BME280;11994;51.038;16.974;2023-04-28T02:13:43;100539.35;;;6.50;68.60
23635;BME280;11994;51.038;16.974;2023-04-28T02:16:08;100539.52;;;6.48;68.84
23635;BME280;11994;51.038;16.974;2023-04-28T02:18:34;100541.44;;;6.45;68.74
23635;BME280;11994;51.038;16.974;2023-04-28T02:21:09;100540.22;;;6.40;68.72
23635;BME280;11994;51.038;16.974;2023-04-28T02:23:37;100536.59;;;6.34;68.69
23635;BME280;11994;51.038;16.974;2023-04-28T02:26:02;100540.77;;;6.27;69.00
23635;BME280;11994;51.038;16.974;2023-04-28T02:28:28;100538.15;;;6.24;69.20
23635;BME280;11994;51.038;16.974;2023-04-28T02:31:01;100533.64;;;6.22;69.27
23635;BME280;11994;51.038;16.974;2023-04-28T02:33:27;100531.20;;;6.19;69.27
23635;BME280;11994;51.038;16.974;2023-04-28T02:36:02;100527.56;;;6.17;69.37
23635;BME280;11994;51.038;16.974;2023-04-28T02:38:28;100524.11;;;6.15;69.42
23635;BME280;11994;51.038;16.974;2023-04-28T02:40:57;100524.61;;;6.14;69.55
23635;BME280;11994;51.038;16.974;2023-04-28T02:43:22;100522.19;;;6.15;69.83
23635;BME280;11994;51.038;16.974;2023-04-28T02:45:48;100526.36;;;6.17;69.99
23635;BME280;11994;51.038;16.974;2023-04-28T02:48:13;100527.91;;;6.16;70.24
23635;BME280;11994;51.038;16.974;2023-04-28T02:50:38;100528.60;;;6.16;70.47
23635;BME280;11994;51.038;16.974;2023-04-28T02:53:03;100522.02;;;6.17;70.56
23635;BME280;11994;51.038;16.974;2023-04-28T02:55:29;100519.93;;;6.16;70.46
23635;BME280;11994;51.038;16.974;2023-04-28T02:57:54;100522.37;;;6.15;70.23
23635;BME280;11994;51.038;16.974;2023-04-28T03:00:19;100523.40;;;6.12;70.36
23635;BME280;11994;51.038;16.974;2023-04-28T03:02:44;100528.43;;;6.12;70.23
23635;BME280;11994;51.038;16.974;2023-04-28T03:05:10;100531.73;;;6.08;70.01
23635;BME280;11994;51.038;16.974;2023-04-28T03:07:35;100532.61;;;6.06;70.00
23635;BME280;11994;51.038;16.974;2023-04-28T03:10:01;100531.57;;;6.06;70.33
23635;BME280;11994;51.038;16.974;2023-04-28T03:12:26;100532.96;;;6.06;70.39
23635;BME280;11994;51.038;16.974;2023-04-28T03:14:51;100537.65;;;6.05;70.49
23635;BME280;11994;51.038;16.974;2023-04-28T03:17:16;100538.52;;;6.02;70.54
23635;BME280;11994;51.038;16.974;2023-04-28T03:19:42;100537.98;;;5.98;70.67
23635;BME280;11994;51.038;16.974;2023-04-28T03:22:07;100535.04;;;5.94;70.79
23635;BME280;11994;51.038;16.974;2023-04-28T03:24:32;100529.14;;;5.88;70.86
23635;BME280;11994;51.038;16.974;2023-04-28T03:26:57;100529.13;;;5.83;71.15
23635;BME280;11994;51.038;16.974;2023-04-28T03:29:23;100525.13;;;5.80;71.29
23635;BME280;11994;51.038;16.974;2023-04-28T03:31:49;100524.95;;;5.80;71.29
23635;BME280;11994;51.038;16.974;2023-04-28T03:34:15;100523.02;;;5.78;71.32
23635;BME280;11994;51.038;16.974;2023-04-28T03:36:40;100525.10;;;5.74;71.22
23635;BME280;11994;51.038;16.974;2023-04-28T03:39:05;100521.11;;;5.69;71.20
23635;BME280;11994;51.038;16.974;2023-04-28T03:41:31;100523.35;;;5.65;71.51
23635;BME280;11994;51.038;16.974;2023-04-28T03:43:56;100522.84;;;5.62;71.51
23635;BME280;11994;51.038;16.974;2023-04-28T03:46:21;100525.61;;;5.58;71.43
23635;BME280;11994;51.038;16.974;2023-04-28T03:48:47;100530.62;;;5.55;71.59
23635;BME280;11994;51.038;16.974;2023-04-28T03:51:12;100524.39;;;5.53;71.71
23635;BME280;11994;51.038;16.974;2023-04-28T03:53:37;100522.47;;;5.54;71.74
23635;BME280;11994;51.038;16.974;2023-04-28T03:56:02;100526.10;;;5.55;71.70
23635;BME280;11994;51.038;16.974;2023-04-28T03:58:28;100529.57;;;5.54;71.92
23635;BME280;11994;51.038;16.974;2023-04-28T04:00:53;100522.64;;;5.55;72.06
23635;BME280;11994;51.038;16.974;2023-04-28T04:03:18;100527.34;;;5.60;72.32
23635;BME280;11994;51.038;16.974;2023-04-28T04:05:46;100527.34;;;5.64;72.22
23635;BME280;11994;51.038;16.974;2023-04-28T04:08:12;100522.30;;;5.64;72.39
23635;BME280;11994;51.038;16.974;2023-04-28T04:10:37;100521.61;;;5.67;72.21
23635;BME280;11994;51.038;16.974;2023-04-28T04:13:02;100516.92;;;5.63;72.28
23635;BME280;11994;51.038;16.974;2023-04-28T04:15:28;100524.38;;;5.62;72.48
23635;BME280;11994;51.038;16.974;2023-04-28T04:17:53;100522.48;;;5.63;72.46
23635;BME280;11994;51.038;16.974;2023-04-28T04:20:18;100519.70;;;5.63;72.54
23635;BME280;11994;51.038;16.974;2023-04-28T04:22:43;100520.05;;;5.60;72.55
23635;BME280;11994;51.038;16.974;2023-04-28T04:25:09;100516.23;;;5.57;72.52
23635;BME280;11994;51.038;16.974;2023-04-28T04:27:34;100512.75;;;5.51;72.65
23635;BME280;11994;51.038;16.974;2023-04-28T04:29:59;100514.29;;;5.46;72.77
23635;BME280;11994;51.038;16.974;2023-04-28T04:32:25;100515.50;;;5.46;73.00
23635;BME280;11994;51.038;16.974;2023-04-28T04:34:50;100514.82;;;5.47;73.15
23635;BME280;11994;51.038;16.974;2023-04-28T04:37:15;100513.27;;;5.48;73.37
23635;BME280;11994;51.038;16.974;2023-04-28T04:39:41;100513.09;;;5.49;73.40
23635;BME280;11994;51.038;16.974;2023-04-28T04:42:06;100507.02;;;5.52;73.61
23635;BME280;11994;51.038;16.974;2023-04-28T04:44:32;100511.70;;;5.50;73.77
23635;BME280;11994;51.038;16.974;2023-04-28T04:46:57;100518.11;;;5.47;73.88
23635;BME280;11994;51.038;16.974;2023-04-28T04:49:22;100512.56;;;5.47;73.92
23635;BME280;11994;51.038;16.974;2023-04-28T04:51:47;100512.72;;;5.46;74.14
23635;BME280;11994;51.038;16.974;2023-04-28T04:54:13;100509.79;;;5.47;74.24
23635;BME280;11994;51.038;16.974;2023-04-28T04:56:38;100512.58;;;5.48;74.49
23635;BME280;11994;51.038;16.974;2023-04-28T04:59:03;100511.71;;;5.51;74.37
23635;BME280;11994;51.038;16.974;2023-04-28T05:01:28;100512.23;;;5.55;74.63
23635;BME280;11994;51.038;16.974;2023-04-28T05:03:54;100509.80;;;5.57;74.58
23635;BME280;11994;51.038;16.974;2023-04-28T05:06:19;100509.47;;;5.60;74.75
23635;BME280;11994;51.038;16.974;2023-04-28T05:08:44;100504.61;;;5.63;74.68
23635;BME280;11994;51.038;16.974;2023-04-28T05:11:09;100502.70;;;5.67;74.52
23635;BME280;11994;51.038;16.974;2023-04-28T05:13:35;100505.14;;;5.69;74.60
23635;BME280;11994;51.038;16.974;2023-04-28T05:16:00;100500.81;;;5.70;74.63
23635;BME280;11994;51.038;16.974;2023-04-28T05:18:26;100499.59;;;5.72;74.63
23635;BME280;11994;51.038;16.974;2023-04-28T05:20:51;100501.51;;;5.77;74.69
23635;BME280;11994;51.038;16.974;2023-04-28T05:23:16;100501.02;;;5.82;74.76
23635;BME280;11994;51.038;16.974;2023-04-28T05:25:41;100496.52;;;5.86;74.80
23635;BME280;11994;51.038;16.974;2023-04-28T05:28:08;100494.94;;;5.93;74.93
23635;BME280;11994;51.038;16.974;2023-04-28T05:30:33;100495.63;;;6.00;74.88
23635;BME280;11994;51.038;16.974;2023-04-28T05:32:58;100496.32;;;6.02;74.97
23635;BME280;11994;51.038;16.974;2023-04-28T05:35:24;100496.51;;;6.04;74.99
23635;BME280;11994;51.038;16.974;2023-04-28T05:37:49;100493.72;;;6.05;75.30
23635;BME280;11994;51.038;16.974;2023-04-28T05:40:15;100489.20;;;6.04;75.28
23635;BME280;11994;51.038;16.974;2023-04-28T05:42:40;100493.20;;;6.09;75.25
23635;BME280;11994;51.038;16.974;2023-04-28T05:45:06;100491.27;;;6.20;75.34
23635;BME280;11994;51.038;16.974;2023-04-28T05:47:31;100492.83;;;6.30;75.28
23635;BME280;11994;51.038;16.974;2023-04-28T05:49:56;100494.38;;;6.40;75.40
23635;BME280;11994;51.038;16.974;2023-04-28T05:52:21;100489.65;;;6.51;75.66
23635;BME280;11994;51.038;16.974;2023-04-28T05:54:47;100489.98;;;6.59;75.53
23635;BME280;11994;51.038;16.974;2023-04-28T05:57:12;100491.36;;;6.62;75.25
23635;BME280;11994;51.038;16.974;2023-04-28T05:59:37;100489.96;;;6.67;75.38
23635;BME280;11994;51.038;16.974;2023-04-28T06:02:02;100488.05;;;6.66;75.50
23635;BME280;11994;51.038;16.974;2023-04-28T06:04:28;100488.02;;;6.73;75.43
23635;BME280;11994;51.038;16.974;2023-04-28T06:06:53;100482.06;;;6.86;75.41
23635;BME280;11994;51.038;16.974;2023-04-28T06:09:18;100485.65;;;7.01;75.56
23635;BME280;11994;51.038;16.974;2023-04-28T06:11:44;100483.65;;;7.15;75.19
23635;BME280;11994;51.038;16.974;2023-04-28T06:14:09;100479.07;;;7.27;74.79
23635;BME280;11994;51.038;16.974;2023-04-28T06:16:35;100474.84;;;7.37;74.34
23635;BME280;11994;51.038;16.974;2023-04-28T06:19:00;100467.48;;;7.45;73.99
23635;BME280;11994;51.038;16.974;2023-04-28T06:21:25;100471.56;;;7.57;73.70
23635;BME280;11994;51.038;16.974;2023-04-28T06:23:52;100468.88;;;7.67;73.63
23635;BME280;11994;51.038;16.974;2023-04-28T06:26:17;100459.70;;;7.84;73.65
23635;BME280;11994;51.038;16.974;2023-04-28T06:28:43;100460.38;;;8.05;73.27
23635;BME280;11994;51.038;16.974;2023-04-28T06:31:08;100452.77;;;8.20;73.05
23635;BME280;11994;51.038;16.974;2023-04-28T06:33:33;100454.30;;;8.42;72.88
23635;BME280;11994;51.038;16.974;2023-04-28T06:35:59;100455.98;;;8.62;72.72
23635;BME280;11994;51.038;16.974;2023-04-28T06:38:24;100455.27;;;8.77;71.59
23635;BME280;11994;51.038;16.974;2023-04-28T06:40:50;100456.48;;;8.78;71.10
23635;BME280;11994;51.038;16.974;2023-04-28T06:43:15;100460.96;;;8.83;71.35
23635;BME280;11994;51.038;16.974;2023-04-28T06:45:40;100456.83;;;8.91;70.57
23635;BME280;11994;51.038;16.974;2023-04-28T06:48:06;100455.45;;;8.91;70.14
23635;BME280;11994;51.038;16.974;2023-04-28T06:50:32;100448.98;;;8.91;70.37
23635;BME280;11994;51.038;16.974;2023-04-28T06:52:57;100456.23;;;8.98;70.19
23635;BME280;11994;51.038;16.974;2023-04-28T06:55:25;100451.96;;;9.03;69.71
23635;BME280;11994;51.038;16.974;2023-04-28T06:57:50;100448.95;;;9.07;69.33
23635;BME280;11994;51.038;16.974;2023-04-28T07:00:16;100448.48;;;9.15;68.10
23635;BME280;11994;51.038;16.974;2023-04-28T07:02:41;100447.82;;;9.25;68.05
23635;BME280;11994;51.038;16.974;2023-04-28T07:05:06;100442.70;;;9.41;68.16
23635;BME280;11994;51.038;16.974;2023-04-28T07:07:32;100433.92;;;9.55;68.28
23635;BME280;11994;51.038;16.974;2023-04-28T07:09:58;100431.52;;;9.74;69.00
23635;BME280;11994;51.038;16.974;2023-04-28T07:12:24;100424.17;;;10.06;69.60
23635;BME280;11994;51.038;16.974;2023-04-28T07:14:49;100428.62;;;10.40;69.00
23635;BME280;11994;51.038;16.974;2023-04-28T07:17:15;100424.70;;;10.52;67.55
23635;BME280;11994;51.038;16.974;2023-04-28T07:19:41;100422.16;;;10.57;67.02
23635;BME280;11994;51.038;16.974;2023-04-28T07:22:06;100417.75;;;10.67;66.81
23635;BME280;11994;51.038;16.974;2023-04-28T07:24:31;100417.73;;;10.76;65.86
23635;BME280;11994;51.038;16.974;2023-04-28T07:26:57;100417.92;;;10.75;64.88
23635;BME280;11994;51.038;16.974;2023-04-28T07:29:22;100414.04;;;10.69;64.98
23635;BME280;11994;51.038;16.974;2023-04-28T07:31:48;100412.73;;;10.73;65.26
23635;BME280;11994;51.038;16.974;2023-04-28T07:34:13;100412.70;;;10.82;64.96
23635;BME280;11994;51.038;16.974;2023-04-28T07:36:38;100415.00;;;10.90;64.53
23635;BME280;11994;51.038;16.974;2023-04-28T07:39:04;100409.05;;;10.97;64.62
23635;BME280;11994;51.038;16.974;2023-04-28T07:41:29;100403.23;;;11.07;64.27
23635;BME280;11994;51.038;16.974;2023-04-28T07:43:55;100404.45;;;11.16;64.35
23635;BME280;11994;51.038;16.974;2023-04-28T07:46:20;100399.25;;;11.28;64.42
23635;BME280;11994;51.038;16.974;2023-04-28T07:48:46;100395.58;;;11.36;64.04
23635;BME280;11994;51.038;16.974;2023-04-28T07:51:11;100395.96;;;11.49;62.98
23635;BME280;11994;51.038;16.974;2023-04-28T07:53:36;100391.77;;;11.55;62.55
23635;BME280;11994;51.038;16.974;2023-04-28T07:56:02;100389.64;;;11.64;61.25
23635;BME280;11994;51.038;16.974;2023-04-28T07:58:27;100384.66;;;11.74;60.87
23635;BME280;11994;51.038;16.974;2023-04-28T08:00:52;100385.58;;;11.86;61.07
23635;BME280;11994;51.038;16.974;2023-04-28T08:03:17;100384.89;;;11.99;60.13
23635;BME280;11994;51.038;16.974;2023-04-28T08:05:43;100384.55;;;12.11;60.67
23635;BME280;11994;51.038;16.974;2023-04-28T08:08:09;100381.03;;;12.31;60.03
23635;BME280;11994;51.038;16.974;2023-04-28T08:10:34;100380.75;;;12.34;58.19
23635;BME280;11994;51.038;16.974;2023-04-28T08:12:59;100383.64;;;12.31;58.81
23635;BME280;11994;51.038;16.974;2023-04-28T08:15:25;100381.77;;;12.41;58.65
23635;BME280;11994;51.038;16.974;2023-04-28T08:17:51;100379.59;;;12.50;57.36
23635;BME280;11994;51.038;16.974;2023-04-28T08:20:16;100378.23;;;12.49;57.99
23635;BME280;11994;51.038;16.974;2023-04-28T08:22:43;100374.58;;;12.66;57.57
23635;BME280;11994;51.038;16.974;2023-04-28T08:25:09;100373.35;;;12.71;57.10
23635;BME280;11994;51.038;16.974;2023-04-28T08:27:35;100370.61;;;12.75;58.02
23635;BME280;11994;51.038;16.974;2023-04-28T08:30:02;100365.27;;;12.90;57.44
23635;BME280;11994;51.038;16.974;2023-04-28T08:32:28;100362.80;;;13.01;56.87
23635;BME280;11994;51.038;16.974;2023-04-28T08:34:53;100356.84;;;13.13;56.04
23635;BME280;11994;51.038;16.974;2023-04-28T08:37:19;100356.90;;;13.22;55.50
23635;BME280;11994;51.038;16.974;2023-04-28T08:39:44;100348.66;;;13.26;54.95
23635;BME280;11994;51.038;16.974;2023-04-28T08:42:09;100347.35;;;13.40;54.15
23635;BME280;11994;51.038;16.974;2023-04-28T08:44:38;100344.13;;;13.52;54.20
23635;BME280;11994;51.038;16.974;2023-04-28T08:47:07;100343.89;;;13.64;53.44
23635;BME280;11994;51.038;16.974;2023-04-28T08:49:35;100339.76;;;13.77;52.77
23635;BME280;11994;51.038;16.974;2023-04-28T08:52:01;100338.36;;;13.87;53.14
23635;BME280;11994;51.038;16.974;2023-04-28T08:54:29;100339.63;;;14.00;52.97
23635;BME280;11994;51.038;16.974;2023-04-28T08:56:54;100340.85;;;14.11;51.02
23635;BME280;11994;51.038;16.974;2023-04-28T08:59:21;100337.55;;;14.09;51.84
23635;BME280;11994;51.038;16.974;2023-04-28T09:01:47;100335.70;;;14.12;51.00
23635;BME280;11994;51.038;16.974;2023-04-28T09:04:13;100330.66;;;14.21;49.60
23635;BME280;11994;51.038;16.974;2023-04-28T09:06:40;100331.12;;;14.22;49.56
23635;BME280;11994;51.038;16.974;2023-04-28T09:09:21;100329.73;;;14.22;50.10
23635;BME280;11994;51.038;16.974;2023-04-28T09:14:22;100322.66;;;14.37;50.16
23635;BME280;11994;51.038;16.974;2023-04-28T09:16:48;100316.73;;;14.40;50.65
23635;BME280;11994;51.038;16.974;2023-04-28T09:19:14;100314.77;;;14.54;50.91
23635;BME280;11994;51.038;16.974;2023-04-28T09:21:47;100308.09;;;14.68;50.86
23635;BME280;11994;51.038;16.974;2023-04-28T09:24:32;100305.63;;;14.77;51.24
23635;BME280;11994;51.038;16.974;2023-04-28T09:27:07;100300.11;;;14.92;51.60
23635;BME280;11994;51.038;16.974;2023-04-28T09:29:35;100295.82;;;15.02;49.05
23635;BME280;11994;51.038;16.974;2023-04-28T09:34:45;100289.86;;;15.06;49.22
23635;BME280;11994;51.038;16.974;2023-04-28T09:37:17;100284.23;;;15.18;50.01
23635;BME280;11994;51.038;16.974;2023-04-28T09:39:47;100285.86;;;15.35;48.31
23635;BME280;11994;51.038;16.974;2023-04-28T09:42:32;100280.02;;;15.39;47.32
23635;BME280;11994;51.038;16.974;2023-04-28T09:44:58;100273.45;;;15.45;47.83
23635;BME280;11994;51.038;16.974;2023-04-28T09:47:24;100270.77;;;15.46;47.25
23635;BME280;11994;51.038;16.974;2023-04-28T09:49:56;100271.24;;;15.47;47.13
23635;BME280;11994;51.038;16.974;2023-04-28T09:52:22;100267.14;;;15.60;47.65
23635;BME280;11994;51.038;16.974;2023-04-28T09:54:51;100263.90;;;15.62;46.75
23635;BME280;11994;51.038;16.974;2023-04-28T09:57:17;100263.22;;;15.61;47.05
23635;BME280;11994;51.038;16.974;2023-04-28T09:59:47;100264.27;;;15.65;46.06
23635;BME280;11994;51.038;16.974;2023-04-28T10:02:15;100257.17;;;15.58;46.19
23635;BME280;11994;51.038;16.974;2023-04-28T10:04:42;100252.27;;;15.61;46.39
23635;BME280;11994;51.038;16.974;2023-04-28T10:07:08;100251.58;;;15.73;46.53
23635;BME280;11994;51.038;16.974;2023-04-28T10:09:35;100242.90;;;15.86;46.94
23635;BME280;11994;51.038;16.974;2023-04-28T10:12:00;100244.70;;;15.96;46.81
23635;BME280;11994;51.038;16.974;2023-04-28T10:14:27;100228.79;;;16.09;46.74
23635;BME280;11994;51.038;16.974;2023-04-28T10:16:53;100224.25;;;16.15;44.21
23635;BME280;11994;51.038;16.974;2023-04-28T10:19:20;100220.21;;;16.11;45.26
23635;BME280;11994;51.038;16.974;2023-04-28T10:21:46;100215.52;;;16.21;44.62
23635;BME280;11994;51.038;16.974;2023-04-28T10:24:25;100216.08;;;16.24;44.81
23635;BME280;11994;51.038;16.974;2023-04-28T10:27:06;100209.52;;;16.32;45.03
23635;BME280;11994;51.038;16.974;2023-04-28T10:29:32;100205.57;;;16.37;44.58
23635;BME280;11994;51.038;16.974;2023-04-28T10:34:42;100193.64;;;16.54;43.48
23635;BME280;11994;51.038;16.974;2023-04-28T10:37:07;100193.45;;;16.55;44.34
23635;BME280;11994;51.038;16.974;2023-04-28T10:39:32;100197.70;;;16.66;42.89
23635;BME280;11994;51.038;16.974;2023-04-28T10:41:58;100189.34;;;16.67;42.99
23635;BME280;11994;51.038;16.974;2023-04-28T10:47:01;100179.08;;;16.70;42.77
23635;BME280;11994;51.038;16.974;2023-04-28T10:52:46;100170.23;;;16.70;43.50
23635;BME280;11994;51.038;16.974;2023-04-28T10:55:25;100166.04;;;16.70;43.11
23635;BME280;11994;51.038;16.974;2023-04-28T11:00:35;100165.77;;;16.68;42.32
23635;BME280;11994;51.038;16.974;2023-04-28T11:03:01;100166.55;;;16.67;41.92
23635;BME280;11994;51.038;16.974;2023-04-28T11:05:26;100168.20;;;16.65;43.08
23635;BME280;11994;51.038;16.974;2023-04-28T11:13:26;100156.59;;;16.93;42.68
23635;BME280;11994;51.038;16.974;2023-04-28T11:16:04;100155.80;;;17.04;41.83
23635;BME280;11994;51.038;16.974;2023-04-28T11:21:14;100150.78;;;17.23;40.53
23635;BME280;11994;51.038;16.974;2023-04-28T11:23:39;100146.41;;;17.22;41.56
23635;BME280;11994;51.038;16.974;2023-04-28T11:26:05;100144.52;;;17.38;40.66
23635;BME280;11994;51.038;16.974;2023-04-28T11:28:30;100139.90;;;17.49;42.15
23635;BME280;11994;51.038;16.974;2023-04-28T11:31:14;100140.69;;;17.63;41.30
23635;BME280;11994;51.038;16.974;2023-04-28T11:33:44;100133.36;;;17.65;39.76
23635;BME280;11994;51.038;16.974;2023-04-28T11:36:20;100127.61;;;17.67;38.47
23635;BME280;11994;51.038;16.974;2023-04-28T11:38:46;100123.48;;;17.68;39.87
23635;BME280;11994;51.038;16.974;2023-04-28T11:41:13;100122.83;;;17.73;39.57
23635;BME280;11994;51.038;16.974;2023-04-28T11:43:38;100119.46;;;17.67;39.30
23635;BME280;11994;51.038;16.974;2023-04-28T11:46:05;100118.37;;;17.64;38.41
23635;BME280;11994;51.038;16.974;2023-04-28T11:48:31;100113.34;;;17.69;38.54
23635;BME280;11994;51.038;16.974;2023-04-28T11:50:56;100117.35;;;17.79;38.37
23635;BME280;11994;51.038;16.974;2023-04-28T11:53:39;100108.78;;;17.77;37.87
23635;BME280;11994;51.038;16.974;2023-04-28T11:56:04;100103.39;;;17.86;38.77
23635;BME280;11994;51.038;16.974;2023-04-28T11:58:32;100100.47;;;17.97;38.14
23635;BME280;11994;51.038;16.974;2023-04-28T12:03:31;100107.94;;;18.08;37.76
23635;BME280;11994;51.038;16.974;2023-04-28T12:05:57;100101.16;;;18.00;36.38
23635;BME280;11994;51.038;16.974;2023-04-28T12:08:28;100103.92;;;17.92;37.30
23635;BME280;11994;51.038;16.974;2023-04-28T12:11:06;100096.73;;;17.97;36.35
23635;BME280;11994;51.038;16.974;2023-04-28T12:13:33;100102.98;;;17.99;36.93
23635;BME280;11994;51.038;16.974;2023-04-28T12:16:00;100103.81;;;18.06;37.58
23635;BME280;11994;51.038;16.974;2023-04-28T12:18:25;100104.42;;;18.11;38.32
23635;BME280;11994;51.038;16.974;2023-04-28T12:20:51;100102.50;;;18.17;37.50
23635;BME280;11994;51.038;16.974;2023-04-28T12:23:27;100102.23;;;18.13;36.59
23635;BME280;11994;51.038;16.974;2023-04-28T12:25:52;100097.16;;;18.05;36.89
23635;BME280;11994;51.038;16.974;2023-04-28T12:28:18;100093.59;;;17.96;37.41
23635;BME280;11994;51.038;16.974;2023-04-28T12:30:43;100089.17;;;17.86;37.38
23635;BME280;11994;51.038;16.974;2023-04-28T12:33:22;100084.27;;;17.86;38.05
23635;BME280;11994;51.038;16.974;2023-04-28T12:35:48;100084.09;;;17.92;37.09
23635;BME280;11994;51.038;16.974;2023-04-28T12:38:14;100083.73;;;18.01;37.04
23635;BME280;11994;51.038;16.974;2023-04-28T12:40:39;100079.70;;;18.10;37.79
23635;BME280;11994;51.038;16.974;2023-04-28T12:43:05;100076.86;;;18.16;37.02
23635;BME280;11994;51.038;16.974;2023-04-28T12:45:30;100077.78;;;18.25;36.74
23635;BME280;11994;51.038;16.974;2023-04-28T12:47:57;100071.92;;;18.35;37.09
23635;BME280;11994;51.038;16.974;2023-04-28T12:50:22;100073.39;;;18.40;38.17
23635;BME280;11994;51.038;16.974;2023-04-28T12:52:48;100075.14;;;18.47;37.16
23635;BME280;11994;51.038;16.974;2023-04-28T12:55:13;100070.38;;;18.37;36.96
23635;BME280;11994;51.038;16.974;2023-04-28T12:57:39;100065.66;;;18.29;37.47
23635;BME280;11994;51.038;16.974;2023-04-28T13:00:04;100065.52;;;18.26;36.51
23635;BME280;11994;51.038;16.974;2023-04-28T13:02:30;100058.14;;;18.19;36.58
23635;BME280;11994;51.038;16.974;2023-04-28T13:04:55;100058.27;;;18.13;36.60
23635;BME280;11994;51.038;16.974;2023-04-28T13:07:20;100053.20;;;18.09;36.98